sensor_id;sensor_type;location;lat;lon;timestamp;pressure;altitude;pressure_sealevel;temperature
74539;BMP180;66042;51.090;-115.340;2023-06-14T00:01:49;85708.80;;;25.20
74539;BMP180;66042;51.090;-115.340;2023-06-14T00:04:17;85730.20;;;24.86
74539;BMP180;66042;51.090;-115.340;2023-06-14T00:06:45;85733.40;;;24.50
74539;BMP180;66042;51.090;-115.340;2023-06-14T00:09:14;85736.40;;;24.20
74539;BMP180;66042;51.090;-115.340;2023-06-14T00:11:44;85729.60;;;23.80
74539;BMP180;66042;51.090;-115.340;2023-06-14T00:14:30;85714.20;;;23.52
74539;BMP180;66042;51.090;-115.340;2023-06-14T00:16:56;85731.00;;;23.10
74539;BMP180;66042;51.090;-115.340;2023-06-14T00:19:25;85728.00;;;22.80
74539;BMP180;66042;51.090;-115.340;2023-06-14T00:22:11;85736.60;;;22.58
74539;BMP180;66042;51.090;-115.340;2023-06-14T00:27:25;85753.00;;;22.00
74539;BMP180;66042;51.090;-115.340;2023-06-14T00:36:01;85769.40;;;21.00
74539;BMP180;66042;51.090;-115.340;2023-06-14T00:38:28;85776.20;;;20.72
74539;BMP180;66042;51.090;-115.340;2023-06-14T00:40:55;85770.00;;;20.50
74539;BMP180;66042;51.090;-115.340;2023-06-14T00:43:22;85756.00;;;20.40
74539;BMP180;66042;51.090;-115.340;2023-06-14T00:46:08;85754.80;;;20.30
74539;BMP180;66042;51.090;-115.340;2023-06-14T00:48:54;85771.00;;;20.20
74539;BMP180;66042;51.090;-115.340;2023-06-14T00:51:22;85771.00;;;20.10
74539;BMP180;66042;51.090;-115.340;2023-06-14T00:53:50;85764.40;;;20.00
74539;BMP180;66042;51.090;-115.340;2023-06-14T00:56:17;85764.40;;;19.90
74539;BMP180;66042;51.090;-115.340;2023-06-14T00:59:03;85766.60;;;19.80
74539;BMP180;66042;51.090;-115.340;2023-06-14T01:01:33;85774.20;;;19.70
74539;BMP180;66042;51.090;-115.340;2023-06-14T01:04:18;85771.60;;;19.70
74539;BMP180;66042;51.090;-115.340;2023-06-14T01:07:05;85765.40;;;19.80
74539;BMP180;66042;51.090;-115.340;2023-06-14T01:15:51;85761.40;;;19.60
74539;BMP180;66042;51.090;-115.340;2023-06-14T01:18:19;85762.80;;;19.40
74539;BMP180;66042;51.090;-115.340;2023-06-14T01:20:47;85755.00;;;19.30
74539;BMP180;66042;51.090;-115.340;2023-06-14T01:23:23;85740.40;;;19.20
74539;BMP180;66042;51.090;-115.340;2023-06-14T01:25:50;85736.40;;;19.10
74539;BMP180;66042;51.090;-115.340;2023-06-14T01:28:22;85737.40;;;19.00
74539;BMP180;66042;51.090;-115.340;2023-06-14T01:30:54;85751.00;;;18.84
74539;BMP180;66042;51.090;-115.340;2023-06-14T01:33:26;85778.60;;;18.70
74539;BMP180;66042;51.090;-115.340;2023-06-14T01:35:56;85799.60;;;18.70
74539;BMP180;66042;51.090;-115.340;2023-06-14T01:38:26;85782.20;;;18.70
74539;BMP180;66042;51.090;-115.340;2023-06-14T01:40:59;85778.00;;;18.70
74539;BMP180;66042;51.090;-115.340;2023-06-14T01:43:29;85769.80;;;18.70
74539;BMP180;66042;51.090;-115.340;2023-06-14T01:48:43;85758.40;;;18.50
74539;BMP180;66042;51.090;-115.340;2023-06-14T01:51:10;85753.80;;;18.40
74539;BMP180;66042;51.090;-115.340;2023-06-14T01:53:55;85751.80;;;18.30
74539;BMP180;66042;51.090;-115.340;2023-06-14T01:56:23;85749.60;;;18.30
74539;BMP180;66042;51.090;-115.340;2023-06-14T01:58:50;85753.60;;;18.18
74539;BMP180;66042;51.090;-115.340;2023-06-14T02:01:18;85746.60;;;18.10
74539;BMP180;66042;51.090;-115.340;2023-06-14T02:03:48;85741.20;;;18.00
74539;BMP180;66042;51.090;-115.340;2023-06-14T02:06:15;85733.40;;;17.90
74539;BMP180;66042;51.090;-115.340;2023-06-14T02:08:43;85731.80;;;17.88
74539;BMP180;66042;51.090;-115.340;2023-06-14T02:11:10;85749.60;;;17.80
74539;BMP180;66042;51.090;-115.340;2023-06-14T02:13:36;85754.20;;;17.70
74539;BMP180;66042;51.090;-115.340;2023-06-14T02:16:03;85764.40;;;17.70
74539;BMP180;66042;51.090;-115.340;2023-06-14T02:18:49;85770.00;;;17.70
74539;BMP180;66042;51.090;-115.340;2023-06-14T02:21:17;85771.20;;;17.70
74539;BMP180;66042;51.090;-115.340;2023-06-14T02:23:45;85774.40;;;17.60
74539;BMP180;66042;51.090;-115.340;2023-06-14T02:26:12;85778.00;;;17.60
74539;BMP180;66042;51.090;-115.340;2023-06-14T02:28:39;85779.20;;;17.50
74539;BMP180;66042;51.090;-115.340;2023-06-14T02:31:05;85780.20;;;17.50
74539;BMP180;66042;51.090;-115.340;2023-06-14T02:33:32;85781.00;;;17.50
74539;BMP180;66042;51.090;-115.340;2023-06-14T02:36:00;85776.20;;;17.50
74539;BMP180;66042;51.090;-115.340;2023-06-14T02:38:45;85776.80;;;17.50
74539;BMP180;66042;51.090;-115.340;2023-06-14T02:44:24;85778.20;;;17.50
74539;BMP180;66042;51.090;-115.340;2023-06-14T02:47:11;85782.60;;;17.44
74539;BMP180;66042;51.090;-115.340;2023-06-14T02:49:38;85782.00;;;17.40
74539;BMP180;66042;51.090;-115.340;2023-06-14T02:52:24;85779.80;;;17.48
74539;BMP180;66042;51.090;-115.340;2023-06-14T02:54:51;85781.40;;;17.40
74539;BMP180;66042;51.090;-115.340;2023-06-14T02:57:19;85782.00;;;17.40
74539;BMP180;66042;51.090;-115.340;2023-06-14T02:59:46;85779.80;;;17.30
74539;BMP180;66042;51.090;-115.340;2023-06-14T03:02:13;85782.00;;;17.28
74539;BMP180;66042;51.090;-115.340;2023-06-14T03:04:40;85778.40;;;17.20
74539;BMP180;66042;51.090;-115.340;2023-06-14T03:07:27;85783.60;;;17.14
74539;BMP180;66042;51.090;-115.340;2023-06-14T03:09:53;85779.80;;;17.20
74539;BMP180;66042;51.090;-115.340;2023-06-14T03:12:39;85783.80;;;17.10
74539;BMP180;66042;51.090;-115.340;2023-06-14T03:15:25;85786.00;;;17.10
74539;BMP180;66042;51.090;-115.340;2023-06-14T03:17:54;85773.20;;;17.04
74539;BMP180;66042;51.090;-115.340;2023-06-14T03:20:21;85765.60;;;17.00
74539;BMP180;66042;51.090;-115.340;2023-06-14T03:22:48;85752.00;;;16.80
74539;BMP180;66042;51.090;-115.340;2023-06-14T03:25:33;85738.80;;;16.80
74539;BMP180;66042;51.090;-115.340;2023-06-14T03:28:05;85743.80;;;16.60
74539;BMP180;66042;51.090;-115.340;2023-06-14T03:30:31;85744.00;;;16.50
74539;BMP180;66042;51.090;-115.340;2023-06-14T03:32:58;85744.80;;;16.50
74539;BMP180;66042;51.090;-115.340;2023-06-14T03:35:28;85747.20;;;16.56
74539;BMP180;66042;51.090;-115.340;2023-06-14T03:38:14;85749.40;;;16.54
74539;BMP180;66042;51.090;-115.340;2023-06-14T03:40:41;85744.40;;;16.50
74539;BMP180;66042;51.090;-115.340;2023-06-14T03:43:08;85741.40;;;16.48
74539;BMP180;66042;51.090;-115.340;2023-06-14T03:45:35;85738.20;;;16.50
74539;BMP180;66042;51.090;-115.340;2023-06-14T03:48:02;85740.20;;;16.50
74539;BMP180;66042;51.090;-115.340;2023-06-14T03:50:47;85732.00;;;16.60
74539;BMP180;66042;51.090;-115.340;2023-06-14T03:53:14;85730.40;;;16.60
74539;BMP180;66042;51.090;-115.340;2023-06-14T03:55:59;85724.20;;;16.60
74539;BMP180;66042;51.090;-115.340;2023-06-14T03:58:26;85717.40;;;16.54
74539;BMP180;66042;51.090;-115.340;2023-06-14T04:00:54;85724.60;;;16.50
74539;BMP180;66042;51.090;-115.340;2023-06-14T04:03:21;85722.40;;;16.50
74539;BMP180;66042;51.090;-115.340;2023-06-14T04:05:51;85725.60;;;16.50
74539;BMP180;66042;51.090;-115.340;2023-06-14T04:08:37;85714.80;;;16.40
74539;BMP180;66042;51.090;-115.340;2023-06-14T04:11:05;85713.40;;;16.40
74539;BMP180;66042;51.090;-115.340;2023-06-14T04:13:32;85711.60;;;16.32
74539;BMP180;66042;51.090;-115.340;2023-06-14T04:16:01;85706.00;;;16.36
74539;BMP180;66042;51.090;-115.340;2023-06-14T04:18:28;85703.40;;;16.30
74539;BMP180;66042;51.090;-115.340;2023-06-14T04:21:14;85694.00;;;16.30
74539;BMP180;66042;51.090;-115.340;2023-06-14T04:23:41;85685.40;;;16.30
74539;BMP180;66042;51.090;-115.340;2023-06-14T04:26:10;85675.80;;;16.30
74539;BMP180;66042;51.090;-115.340;2023-06-14T04:28:37;85665.40;;;16.24
74539;BMP180;66042;51.090;-115.340;2023-06-14T04:31:23;85653.20;;;16.20
74539;BMP180;66042;51.090;-115.340;2023-06-14T04:33:52;85646.20;;;16.00
74539;BMP180;66042;51.090;-115.340;2023-06-14T04:36:20;85643.60;;;16.00
74539;BMP180;66042;51.090;-115.340;2023-06-14T04:41:32;85641.80;;;15.98
74539;BMP180;66042;51.090;-115.340;2023-06-14T04:44:00;85639.60;;;15.90
74539;BMP180;66042;51.090;-115.340;2023-06-14T04:46:48;85635.20;;;15.86
74539;BMP180;66042;51.090;-115.340;2023-06-14T04:49:16;85638.60;;;15.80
74539;BMP180;66042;51.090;-115.340;2023-06-14T04:51:45;85636.80;;;15.80
74539;BMP180;66042;51.090;-115.340;2023-06-14T04:54:13;85631.20;;;15.80
74539;BMP180;66042;51.090;-115.340;2023-06-14T04:56:41;85630.20;;;15.80
74539;BMP180;66042;51.090;-115.340;2023-06-14T04:59:10;85629.80;;;15.60
74539;BMP180;66042;51.090;-115.340;2023-06-14T05:01:41;85623.60;;;15.58
74539;BMP180;66042;51.090;-115.340;2023-06-14T05:04:09;85620.60;;;15.60
74539;BMP180;66042;51.090;-115.340;2023-06-14T05:06:35;85619.80;;;15.60
74539;BMP180;66042;51.090;-115.340;2023-06-14T05:09:03;85620.20;;;15.70
74539;BMP180;66042;51.090;-115.340;2023-06-14T05:11:48;85603.80;;;15.70
74539;BMP180;66042;51.090;-115.340;2023-06-14T05:14:17;85598.80;;;15.70
74539;BMP180;66042;51.090;-115.340;2023-06-14T05:16:44;85607.20;;;15.60
74539;BMP180;66042;51.090;-115.340;2023-06-14T05:19:11;85606.60;;;15.60
74539;BMP180;66042;51.090;-115.340;2023-06-14T05:21:37;85606.40;;;15.60
74539;BMP180;66042;51.090;-115.340;2023-06-14T05:24:05;85612.40;;;15.60
74539;BMP180;66042;51.090;-115.340;2023-06-14T05:26:32;85610.80;;;15.50
74539;BMP180;66042;51.090;-115.340;2023-06-14T05:29:00;85613.60;;;15.50
74539;BMP180;66042;51.090;-115.340;2023-06-14T05:31:28;85614.80;;;15.40
74539;BMP180;66042;51.090;-115.340;2023-06-14T05:33:58;85602.20;;;15.40
74539;BMP180;66042;51.090;-115.340;2023-06-14T05:36:25;85595.80;;;15.40
74539;BMP180;66042;51.090;-115.340;2023-06-14T05:38:54;85601.40;;;15.30
74539;BMP180;66042;51.090;-115.340;2023-06-14T05:41:29;85594.00;;;15.30
74539;BMP180;66042;51.090;-115.340;2023-06-14T05:43:56;85585.60;;;15.20
74539;BMP180;66042;51.090;-115.340;2023-06-14T05:46:24;85579.80;;;15.20
74539;BMP180;66042;51.090;-115.340;2023-06-14T05:48:53;85575.40;;;15.20
74539;BMP180;66042;51.090;-115.340;2023-06-14T05:51:57;85562.80;;;15.10
74539;BMP180;66042;51.090;-115.340;2023-06-14T05:54:24;85546.00;;;14.92
74539;BMP180;66042;51.090;-115.340;2023-06-14T05:56:52;85536.00;;;14.80
74539;BMP180;66042;51.090;-115.340;2023-06-14T05:59:18;85550.80;;;14.80
74539;BMP180;66042;51.090;-115.340;2023-06-14T06:02:03;85557.20;;;14.80
74539;BMP180;66042;51.090;-115.340;2023-06-14T06:04:32;85568.60;;;14.90
74539;BMP180;66042;51.090;-115.340;2023-06-14T06:07:02;85568.80;;;14.86
74539;BMP180;66042;51.090;-115.340;2023-06-14T06:09:30;85570.60;;;14.80
74539;BMP180;66042;51.090;-115.340;2023-06-14T06:11:57;85575.80;;;14.80
74539;BMP180;66042;51.090;-115.340;2023-06-14T06:14:24;85568.60;;;14.80
74539;BMP180;66042;51.090;-115.340;2023-06-14T06:16:51;85561.60;;;14.80
74539;BMP180;66042;51.090;-115.340;2023-06-14T06:19:19;85565.80;;;14.84
74539;BMP180;66042;51.090;-115.340;2023-06-14T06:21:45;85566.00;;;14.90
74539;BMP180;66042;51.090;-115.340;2023-06-14T06:24:12;85565.60;;;14.90
74539;BMP180;66042;51.090;-115.340;2023-06-14T06:26:39;85559.60;;;14.80
74539;BMP180;66042;51.090;-115.340;2023-06-14T06:29:06;85557.40;;;14.80
74539;BMP180;66042;51.090;-115.340;2023-06-14T06:31:33;85562.80;;;14.88
74539;BMP180;66042;51.090;-115.340;2023-06-14T06:34:01;85566.20;;;14.90
74539;BMP180;66042;51.090;-115.340;2023-06-14T06:36:28;85566.80;;;14.90
74539;BMP180;66042;51.090;-115.340;2023-06-14T06:38:55;85561.20;;;14.90
74539;BMP180;66042;51.090;-115.340;2023-06-14T06:41:39;85566.40;;;14.90
74539;BMP180;66042;51.090;-115.340;2023-06-14T06:44:24;85563.80;;;14.80
74539;BMP180;66042;51.090;-115.340;2023-06-14T06:46:51;85560.00;;;14.80
74539;BMP180;66042;51.090;-115.340;2023-06-14T06:49:20;85555.00;;;14.70
74539;BMP180;66042;51.090;-115.340;2023-06-14T06:52:01;85547.40;;;14.60
74539;BMP180;66042;51.090;-115.340;2023-06-14T06:54:29;85541.20;;;14.60
74539;BMP180;66042;51.090;-115.340;2023-06-14T06:56:56;85539.40;;;14.60
74539;BMP180;66042;51.090;-115.340;2023-06-14T06:59:26;85537.40;;;14.60
74539;BMP180;66042;51.090;-115.340;2023-06-14T07:01:53;85537.40;;;14.50
74539;BMP180;66042;51.090;-115.340;2023-06-14T07:07:05;85527.20;;;14.50
74539;BMP180;66042;51.090;-115.340;2023-06-14T07:10:09;85529.40;;;14.50
74539;BMP180;66042;51.090;-115.340;2023-06-14T07:12:55;85551.20;;;14.50
74539;BMP180;66042;51.090;-115.340;2023-06-14T07:15:22;85553.20;;;14.50
74539;BMP180;66042;51.090;-115.340;2023-06-14T07:17:49;85543.40;;;14.50
74539;BMP180;66042;51.090;-115.340;2023-06-14T07:20:17;85534.60;;;14.50
74539;BMP180;66042;51.090;-115.340;2023-06-14T07:22:44;85531.20;;;14.50
74539;BMP180;66042;51.090;-115.340;2023-06-14T07:25:12;85517.00;;;14.50
74539;BMP180;66042;51.090;-115.340;2023-06-14T07:27:44;85501.40;;;14.40
74539;BMP180;66042;51.090;-115.340;2023-06-14T07:30:12;85496.20;;;14.30
74539;BMP180;66042;51.090;-115.340;2023-06-14T07:32:57;85496.40;;;14.30
74539;BMP180;66042;51.090;-115.340;2023-06-14T07:35:24;85492.00;;;14.36
74539;BMP180;66042;51.090;-115.340;2023-06-14T07:40:54;85497.80;;;14.40
74539;BMP180;66042;51.090;-115.340;2023-06-14T07:43:21;85500.20;;;14.42
74539;BMP180;66042;51.090;-115.340;2023-06-14T07:45:48;85507.00;;;14.40
74539;BMP180;66042;51.090;-115.340;2023-06-14T07:48:15;85510.80;;;14.44
74539;BMP180;66042;51.090;-115.340;2023-06-14T07:51:01;85509.00;;;14.50
74539;BMP180;66042;51.090;-115.340;2023-06-14T07:53:46;85496.60;;;14.50
74539;BMP180;66042;51.090;-115.340;2023-06-14T07:56:32;85489.40;;;14.50
74539;BMP180;66042;51.090;-115.340;2023-06-14T07:58:59;85484.80;;;14.50
74539;BMP180;66042;51.090;-115.340;2023-06-14T08:01:26;85479.40;;;14.40
74539;BMP180;66042;51.090;-115.340;2023-06-14T08:03:54;85468.60;;;14.30
74539;BMP180;66042;51.090;-115.340;2023-06-14T08:06:21;85465.60;;;14.30
74539;BMP180;66042;51.090;-115.340;2023-06-14T08:08:48;85466.80;;;14.38
74539;BMP180;66042;51.090;-115.340;2023-06-14T08:11:15;85475.20;;;14.40
74539;BMP180;66042;51.090;-115.340;2023-06-14T08:13:43;85478.60;;;14.40
74539;BMP180;66042;51.090;-115.340;2023-06-14T08:16:10;85485.40;;;14.40
74539;BMP180;66042;51.090;-115.340;2023-06-14T08:18:37;85480.60;;;14.40
74539;BMP180;66042;51.090;-115.340;2023-06-14T08:21:03;85476.40;;;14.40
74539;BMP180;66042;51.090;-115.340;2023-06-14T08:23:30;85476.80;;;14.40
74539;BMP180;66042;51.090;-115.340;2023-06-14T08:25:57;85473.20;;;14.40
74539;BMP180;66042;51.090;-115.340;2023-06-14T08:28:24;85462.60;;;14.40
74539;BMP180;66042;51.090;-115.340;2023-06-14T08:30:51;85460.40;;;14.40
74539;BMP180;66042;51.090;-115.340;2023-06-14T08:33:18;85468.80;;;14.32
74539;BMP180;66042;51.090;-115.340;2023-06-14T08:35:45;85466.00;;;14.30
74539;BMP180;66042;51.090;-115.340;2023-06-14T08:38:12;85466.00;;;14.30
74539;BMP180;66042;51.090;-115.340;2023-06-14T08:40:41;85463.40;;;14.30
74539;BMP180;66042;51.090;-115.340;2023-06-14T08:43:08;85458.20;;;14.30
74539;BMP180;66042;51.090;-115.340;2023-06-14T08:45:36;85463.60;;;14.40
74539;BMP180;66042;51.090;-115.340;2023-06-14T08:48:03;85459.80;;;14.38
74539;BMP180;66042;51.090;-115.340;2023-06-14T08:50:32;85454.40;;;14.30
74539;BMP180;66042;51.090;-115.340;2023-06-14T08:53:02;85449.80;;;14.26
74539;BMP180;66042;51.090;-115.340;2023-06-14T08:55:30;85443.40;;;14.20
74539;BMP180;66042;51.090;-115.340;2023-06-14T08:57:59;85442.40;;;14.20
74539;BMP180;66042;51.090;-115.340;2023-06-14T09:00:27;85443.80;;;14.10
74539;BMP180;66042;51.090;-115.340;2023-06-14T09:02:56;85437.80;;;14.06
74539;BMP180;66042;51.090;-115.340;2023-06-14T09:05:28;85435.20;;;14.00
74539;BMP180;66042;51.090;-115.340;2023-06-14T09:07:55;85434.80;;;14.00
74539;BMP180;66042;51.090;-115.340;2023-06-14T09:10:28;85433.40;;;13.90
74539;BMP180;66042;51.090;-115.340;2023-06-14T09:12:56;85436.20;;;13.96
74539;BMP180;66042;51.090;-115.340;2023-06-14T09:15:23;85441.40;;;13.94
74539;BMP180;66042;51.090;-115.340;2023-06-14T09:17:50;85436.60;;;13.92
74539;BMP180;66042;51.090;-115.340;2023-06-14T09:20:17;85435.20;;;13.90
74539;BMP180;66042;51.090;-115.340;2023-06-14T09:22:45;85439.80;;;13.80
74539;BMP180;66042;51.090;-115.340;2023-06-14T09:25:12;85448.80;;;13.70
74539;BMP180;66042;51.090;-115.340;2023-06-14T09:27:42;85450.60;;;13.70
74539;BMP180;66042;51.090;-115.340;2023-06-14T09:30:12;85450.80;;;13.70
74539;BMP180;66042;51.090;-115.340;2023-06-14T09:32:40;85450.00;;;13.64
74539;BMP180;66042;51.090;-115.340;2023-06-14T09:35:08;85448.00;;;13.54
74539;BMP180;66042;51.090;-115.340;2023-06-14T09:37:35;85449.00;;;13.50
74539;BMP180;66042;51.090;-115.340;2023-06-14T09:40:08;85456.80;;;13.56
74539;BMP180;66042;51.090;-115.340;2023-06-14T09:42:36;85456.00;;;13.60
74539;BMP180;66042;51.090;-115.340;2023-06-14T09:45:04;85449.80;;;13.60
74539;BMP180;66042;51.090;-115.340;2023-06-14T09:47:32;85445.40;;;13.70
74539;BMP180;66042;51.090;-115.340;2023-06-14T09:49:59;85437.80;;;13.70
74539;BMP180;66042;51.090;-115.340;2023-06-14T09:52:27;85430.60;;;13.76
74539;BMP180;66042;51.090;-115.340;2023-06-14T09:54:56;85430.20;;;13.80
74539;BMP180;66042;51.090;-115.340;2023-06-14T09:57:27;85428.00;;;13.80
74539;BMP180;66042;51.090;-115.340;2023-06-14T09:59:58;85424.20;;;13.80
74539;BMP180;66042;51.090;-115.340;2023-06-14T10:02:35;85424.40;;;13.80
74539;BMP180;66042;51.090;-115.340;2023-06-14T10:05:04;85419.80;;;13.80
74539;BMP180;66042;51.090;-115.340;2023-06-14T10:08:24;85418.60;;;13.80
74539;BMP180;66042;51.090;-115.340;2023-06-14T10:10:49;85417.00;;;13.74
74539;BMP180;66042;51.090;-115.340;2023-06-14T10:13:17;85411.20;;;13.80
74539;BMP180;66042;51.090;-115.340;2023-06-14T10:16:15;85410.60;;;13.80
74539;BMP180;66042;51.090;-115.340;2023-06-14T10:18:51;85412.00;;;13.80
74539;BMP180;66042;51.090;-115.340;2023-06-14T10:24:13;85402.60;;;13.60
74539;BMP180;66042;51.090;-115.340;2023-06-14T10:26:58;85401.60;;;13.60
74539;BMP180;66042;51.090;-115.340;2023-06-14T10:29:27;85396.00;;;13.68
74539;BMP180;66042;51.090;-115.340;2023-06-14T10:31:59;85388.40;;;13.70
74539;BMP180;66042;51.090;-115.340;2023-06-14T10:34:29;85380.00;;;13.70
74539;BMP180;66042;51.090;-115.340;2023-06-14T10:37:14;85386.00;;;13.70
74539;BMP180;66042;51.090;-115.340;2023-06-14T10:39:46;85379.80;;;13.70
74539;BMP180;66042;51.090;-115.340;2023-06-14T10:42:14;85373.20;;;13.60
74539;BMP180;66042;51.090;-115.340;2023-06-14T10:44:49;85374.20;;;13.50
74539;BMP180;66042;51.090;-115.340;2023-06-14T10:49:53;85384.60;;;13.50
74539;BMP180;66042;51.090;-115.340;2023-06-14T10:52:27;85381.80;;;13.50
74539;BMP180;66042;51.090;-115.340;2023-06-14T10:55:18;85379.60;;;13.50
74539;BMP180;66042;51.090;-115.340;2023-06-14T10:57:51;85381.60;;;13.40
74539;BMP180;66042;51.090;-115.340;2023-06-14T11:00:23;85373.80;;;13.42
74539;BMP180;66042;51.090;-115.340;2023-06-14T11:05:49;85368.80;;;13.40
74539;BMP180;66042;51.090;-115.340;2023-06-14T11:09:23;85372.40;;;13.50
74539;BMP180;66042;51.090;-115.340;2023-06-14T11:11:42;85364.80;;;13.54
74539;BMP180;66042;51.090;-115.340;2023-06-14T11:14:10;85367.20;;;13.50
74539;BMP180;66042;51.090;-115.340;2023-06-14T11:16:37;85366.60;;;13.54
74539;BMP180;66042;51.090;-115.340;2023-06-14T11:19:04;85370.20;;;13.60
74539;BMP180;66042;51.090;-115.340;2023-06-14T11:21:40;85372.20;;;13.60
74539;BMP180;66042;51.090;-115.340;2023-06-14T11:24:10;85367.20;;;13.54
74539;BMP180;66042;51.090;-115.340;2023-06-14T11:26:38;85368.20;;;13.50
74539;BMP180;66042;51.090;-115.340;2023-06-14T11:29:05;85367.80;;;13.50
74539;BMP180;66042;51.090;-115.340;2023-06-14T11:31:32;85361.40;;;13.58
74539;BMP180;66042;51.090;-115.340;2023-06-14T11:34:00;85358.00;;;13.60
74539;BMP180;66042;51.090;-115.340;2023-06-14T11:36:33;85357.60;;;13.60
74539;BMP180;66042;51.090;-115.340;2023-06-14T11:39:02;85355.00;;;13.60
74539;BMP180;66042;51.090;-115.340;2023-06-14T11:41:59;85353.20;;;13.68
74539;BMP180;66042;51.090;-115.340;2023-06-14T11:44:27;85355.00;;;13.70
74539;BMP180;66042;51.090;-115.340;2023-06-14T11:46:55;85355.80;;;13.70
74539;BMP180;66042;51.090;-115.340;2023-06-14T11:49:24;85360.60;;;13.70
74539;BMP180;66042;51.090;-115.340;2023-06-14T11:51:54;85371.80;;;13.60
74539;BMP180;66042;51.090;-115.340;2023-06-14T11:54:21;85373.60;;;13.56
74539;BMP180;66042;51.090;-115.340;2023-06-14T11:56:48;85378.00;;;13.60
74539;BMP180;66042;51.090;-115.340;2023-06-14T11:59:15;85372.60;;;13.60
74539;BMP180;66042;51.090;-115.340;2023-06-14T12:01:43;85368.40;;;13.70
74539;BMP180;66042;51.090;-115.340;2023-06-14T12:04:11;85371.60;;;13.64
74539;BMP180;66042;51.090;-115.340;2023-06-14T12:06:39;85360.20;;;13.60
74539;BMP180;66042;51.090;-115.340;2023-06-14T12:09:07;85356.60;;;13.70
74539;BMP180;66042;51.090;-115.340;2023-06-14T12:11:39;85354.60;;;13.70
74539;BMP180;66042;51.090;-115.340;2023-06-14T12:14:08;85358.00;;;13.70
74539;BMP180;66042;51.090;-115.340;2023-06-14T12:16:39;85347.80;;;13.64
74539;BMP180;66042;51.090;-115.340;2023-06-14T12:19:17;85343.60;;;13.60
74539;BMP180;66042;51.090;-115.340;2023-06-14T12:21:46;85342.20;;;13.60
74539;BMP180;66042;51.090;-115.340;2023-06-14T12:24:17;85338.00;;;13.60
74539;BMP180;66042;51.090;-115.340;2023-06-14T12:26:44;85338.40;;;13.60
74539;BMP180;66042;51.090;-115.340;2023-06-14T12:29:13;85340.80;;;13.66
74539;BMP180;66042;51.090;-115.340;2023-06-14T12:31:40;85350.60;;;13.70
74539;BMP180;66042;51.090;-115.340;2023-06-14T12:34:08;85351.80;;;13.70
74539;BMP180;66042;51.090;-115.340;2023-06-14T12:36:35;85357.80;;;13.70
74539;BMP180;66042;51.090;-115.340;2023-06-14T12:39:08;85355.00;;;13.66
74539;BMP180;66042;51.090;-115.340;2023-06-14T12:41:35;85356.40;;;13.62
74539;BMP180;66042;51.090;-115.340;2023-06-14T12:44:03;85360.20;;;13.70
74539;BMP180;66042;51.090;-115.340;2023-06-14T12:46:34;85356.60;;;13.70
74539;BMP180;66042;51.090;-115.340;2023-06-14T12:49:08;85359.20;;;13.70
74539;BMP180;66042;51.090;-115.340;2023-06-14T12:51:35;85367.20;;;13.72
74539;BMP180;66042;51.090;-115.340;2023-06-14T12:54:02;85371.00;;;13.80
74539;BMP180;66042;51.090;-115.340;2023-06-14T12:56:29;85374.00;;;13.80
74539;BMP180;66042;51.090;-115.340;2023-06-14T12:58:56;85379.40;;;13.80
74539;BMP180;66042;51.090;-115.340;2023-06-14T13:01:23;85376.40;;;13.80
74539;BMP180;66042;51.090;-115.340;2023-06-14T13:03:50;85380.80;;;13.80
74539;BMP180;66042;51.090;-115.340;2023-06-14T13:06:18;85379.80;;;13.80
74539;BMP180;66042;51.090;-115.340;2023-06-14T13:08:45;85388.00;;;13.80
74539;BMP180;66042;51.090;-115.340;2023-06-14T13:11:12;85390.80;;;13.70
74539;BMP180;66042;51.090;-115.340;2023-06-14T13:13:39;85396.80;;;13.70
74539;BMP180;66042;51.090;-115.340;2023-06-14T13:16:06;85401.00;;;13.80
74539;BMP180;66042;51.090;-115.340;2023-06-14T13:18:34;85406.60;;;13.76
74539;BMP180;66042;51.090;-115.340;2023-06-14T13:21:01;85410.80;;;13.70
74539;BMP180;66042;51.090;-115.340;2023-06-14T13:23:28;85410.80;;;13.70
74539;BMP180;66042;51.090;-115.340;2023-06-14T13:25:55;85417.00;;;13.70
74539;BMP180;66042;51.090;-115.340;2023-06-14T13:28:21;85422.80;;;13.70
74539;BMP180;66042;51.090;-115.340;2023-06-14T13:30:49;85427.80;;;13.70
74539;BMP180;66042;51.090;-115.340;2023-06-14T13:33:16;85435.40;;;13.70
74539;BMP180;66042;51.090;-115.340;2023-06-14T13:35:43;85437.80;;;13.70
74539;BMP180;66042;51.090;-115.340;2023-06-14T13:38:10;85438.60;;;13.70
74539;BMP180;66042;51.090;-115.340;2023-06-14T13:40:37;85443.20;;;13.70
74539;BMP180;66042;51.090;-115.340;2023-06-14T13:43:04;85454.60;;;13.60
74539;BMP180;66042;51.090;-115.340;2023-06-14T13:45:31;85458.40;;;13.60
74539;BMP180;66042;51.090;-115.340;2023-06-14T13:47:58;85456.00;;;13.60
74539;BMP180;66042;51.090;-115.340;2023-06-14T13:50:25;85462.40;;;13.60
74539;BMP180;66042;51.090;-115.340;2023-06-14T13:52:52;85466.40;;;13.60
74539;BMP180;66042;51.090;-115.340;2023-06-14T13:55:19;85468.60;;;13.66
74539;BMP180;66042;51.090;-115.340;2023-06-14T13:57:46;85469.60;;;13.70
74539;BMP180;66042;51.090;-115.340;2023-06-14T14:00:14;85473.20;;;13.70
74539;BMP180;66042;51.090;-115.340;2023-06-14T14:02:40;85476.80;;;13.70
74539;BMP180;66042;51.090;-115.340;2023-06-14T14:05:08;85475.40;;;13.60
74539;BMP180;66042;51.090;-115.340;2023-06-14T14:07:36;85476.80;;;13.60
74539;BMP180;66042;51.090;-115.340;2023-06-14T14:10:04;85474.00;;;13.60
74539;BMP180;66042;51.090;-115.340;2023-06-14T14:12:31;85471.20;;;13.56
74539;BMP180;66042;51.090;-115.340;2023-06-14T14:14:58;85475.00;;;13.60
74539;BMP180;66042;51.090;-115.340;2023-06-14T14:17:25;85484.00;;;13.52
74539;BMP180;66042;51.090;-115.340;2023-06-14T14:19:52;85489.00;;;13.50
74539;BMP180;66042;51.090;-115.340;2023-06-14T14:22:19;85493.20;;;13.46
74539;BMP180;66042;51.090;-115.340;2023-06-14T14:24:45;85498.20;;;13.40
74539;BMP180;66042;51.090;-115.340;2023-06-14T14:27:13;85503.80;;;13.40
74539;BMP180;66042;51.090;-115.340;2023-06-14T14:29:40;85499.60;;;13.30